MMCP/CPE METAR and TAF weather

Enter ICAO airport designator
Station Type Date Time Source
MMCP METAR 2021/03/08 14:44 UTC NOAA

MMCP 081444Z 06010KT 6SM SCT040 BKN100 23/16 A3027 RMK SLP238 5//// 935 8/520


Station Type Date Time Source
MMCP Decoded METAR 2021/03/08 14:44 UTC NOAA

Campeche, Camp., Mexico (MMCP) 19-51N 090-33W
Mar 08, 2021 - 09:44 AM EST / 2021.03.08 1444 UTC
Wind: from the ENE (060 degrees) at 12 MPH (10 KT):0
Visibility: 6 mile(s):0
Sky conditions: mostly cloudy
Temperature: 73 F (23 C)
Dew Point: 60 F (16 C)
Relative Humidity: 64%
Pressure (altimeter): 30.27 in. Hg (1025 hPa)
ob: MMCP 081444Z 06010KT 6SM SCT040 BKN100 23/16 A3027 RMK SLP238 5//// 935 8/520
cycle: 14

Station Type Date Time Source
MMCP TAF 2021/03/08 06:33 UTC NOAA

TAF MMCP 080626Z 0806/0906 34005KT 6SM HZ SKC
TEMPO 0812/0816 3SM BR BKN010
FM081800 34010G20KT 6SM HZ SCT030
FM090300 34005KT 6SM HZ SCT020

Example: see airport list